sensor_id;sensor_type;location;lat;lon;timestamp;P1;durP1;ratioP1;P2;durP2;ratioP2
75768;SDS011;64379;48.888;8.330;2023-02-15T00:01:45;94.05;;;26.27;;
75768;SDS011;64379;48.888;8.330;2023-02-15T00:04:16;90.55;;;23.58;;
75768;SDS011;64379;48.888;8.330;2023-02-15T00:06:45;85.93;;;22.48;;
75768;SDS011;64379;48.888;8.330;2023-02-15T00:09:11;83.97;;;23.13;;
75768;SDS011;64379;48.888;8.330;2023-02-15T00:11:37;115.40;;;23.83;;
75768;SDS011;64379;48.888;8.330;2023-02-15T00:16:39;76.63;;;21.35;;
75768;SDS011;64379;48.888;8.330;2023-02-15T00:19:06;81.15;;;21.75;;
75768;SDS011;64379;48.888;8.330;2023-02-15T00:21:32;71.70;;;20.00;;
75768;SDS011;64379;48.888;8.330;2023-02-15T00:24:00;89.35;;;22.98;;
75768;SDS011;64379;48.888;8.330;2023-02-15T00:26:27;99.18;;;24.15;;
75768;SDS011;64379;48.888;8.330;2023-02-15T00:28:53;85.80;;;21.42;;
75768;SDS011;64379;48.888;8.330;2023-02-15T00:31:19;93.05;;;22.40;;
75768;SDS011;64379;48.888;8.330;2023-02-15T00:33:45;125.72;;;22.90;;
75768;SDS011;64379;48.888;8.330;2023-02-15T00:36:11;85.63;;;23.75;;
75768;SDS011;64379;48.888;8.330;2023-02-15T00:38:37;105.32;;;25.35;;
75768;SDS011;64379;48.888;8.330;2023-02-15T00:41:04;123.65;;;24.13;;
75768;SDS011;64379;48.888;8.330;2023-02-15T00:43:31;82.63;;;22.70;;
75768;SDS011;64379;48.888;8.330;2023-02-15T00:45:58;95.25;;;23.77;;
75768;SDS011;64379;48.888;8.330;2023-02-15T00:48:24;99.97;;;24.02;;
75768;SDS011;64379;48.888;8.330;2023-02-15T00:50:50;178.70;;;26.25;;
75768;SDS011;64379;48.888;8.330;2023-02-15T00:53:17;99.20;;;23.73;;
75768;SDS011;64379;48.888;8.330;2023-02-15T00:55:43;114.82;;;25.58;;
75768;SDS011;64379;48.888;8.330;2023-02-15T00:58:09;133.55;;;25.63;;
75768;SDS011;64379;48.888;8.330;2023-02-15T01:00:35;114.80;;;23.75;;
75768;SDS011;64379;48.888;8.330;2023-02-15T01:03:02;102.57;;;23.88;;
75768;SDS011;64379;48.888;8.330;2023-02-15T01:05:28;87.63;;;22.48;;
75768;SDS011;64379;48.888;8.330;2023-02-15T01:07:54;86.38;;;23.17;;
75768;SDS011;64379;48.888;8.330;2023-02-15T01:10:20;102.32;;;23.20;;
75768;SDS011;64379;48.888;8.330;2023-02-15T01:12:46;80.07;;;21.10;;
75768;SDS011;64379;48.888;8.330;2023-02-15T01:15:12;78.35;;;21.85;;
75768;SDS011;64379;48.888;8.330;2023-02-15T01:17:37;74.40;;;22.25;;
75768;SDS011;64379;48.888;8.330;2023-02-15T01:20:03;67.03;;;19.70;;
75768;SDS011;64379;48.888;8.330;2023-02-15T01:22:30;75.95;;;20.65;;
75768;SDS011;64379;48.888;8.330;2023-02-15T01:24:55;68.55;;;19.58;;
75768;SDS011;64379;48.888;8.330;2023-02-15T01:27:21;65.15;;;21.30;;
75768;SDS011;64379;48.888;8.330;2023-02-15T01:29:46;52.58;;;17.73;;
75768;SDS011;64379;48.888;8.330;2023-02-15T01:32:12;53.03;;;18.17;;
75768;SDS011;64379;48.888;8.330;2023-02-15T01:34:38;54.38;;;17.38;;
75768;SDS011;64379;48.888;8.330;2023-02-15T01:37:04;54.25;;;17.30;;
75768;SDS011;64379;48.888;8.330;2023-02-15T01:39:29;59.17;;;17.33;;
75768;SDS011;64379;48.888;8.330;2023-02-15T01:41:55;59.08;;;18.35;;
75768;SDS011;64379;48.888;8.330;2023-02-15T01:47:23;61.60;;;17.58;;
75768;SDS011;64379;48.888;8.330;2023-02-15T01:50:10;54.75;;;17.80;;
75768;SDS011;64379;48.888;8.330;2023-02-15T01:52:38;53.40;;;18.08;;
75768;SDS011;64379;48.888;8.330;2023-02-15T01:55:10;48.22;;;17.35;;
75768;SDS011;64379;48.888;8.330;2023-02-15T01:57:37;62.42;;;18.42;;
75768;SDS011;64379;48.888;8.330;2023-02-15T02:00:04;60.35;;;18.52;;
75768;SDS011;64379;48.888;8.330;2023-02-15T02:02:31;48.95;;;16.80;;
75768;SDS011;64379;48.888;8.330;2023-02-15T02:05:01;78.68;;;19.70;;
75768;SDS011;64379;48.888;8.330;2023-02-15T02:07:32;56.33;;;17.23;;
75768;SDS011;64379;48.888;8.330;2023-02-15T02:10:01;51.05;;;16.95;;
75768;SDS011;64379;48.888;8.330;2023-02-15T02:12:28;52.75;;;16.58;;
75768;SDS011;64379;48.888;8.330;2023-02-15T02:14:54;59.60;;;17.02;;
75768;SDS011;64379;48.888;8.330;2023-02-15T02:36:24;51.42;;;17.00;;
75768;SDS011;64379;48.888;8.330;2023-02-15T02:44:10;39.28;;;13.65;;
75768;SDS011;64379;48.888;8.330;2023-02-15T02:47:26;42.55;;;15.02;;
75768;SDS011;64379;48.888;8.330;2023-02-15T02:50:01;43.65;;;14.90;;
75768;SDS011;64379;48.888;8.330;2023-02-15T02:52:33;42.30;;;13.43;;
75768;SDS011;64379;48.888;8.330;2023-02-15T02:55:06;41.13;;;13.85;;
75768;SDS011;64379;48.888;8.330;2023-02-15T02:58:06;36.55;;;13.60;;
75768;SDS011;64379;48.888;8.330;2023-02-15T03:00:40;35.20;;;12.73;;
75768;SDS011;64379;48.888;8.330;2023-02-15T03:06:04;32.58;;;12.75;;
75768;SDS011;64379;48.888;8.330;2023-02-15T03:08:35;34.50;;;14.43;;
75768;SDS011;64379;48.888;8.330;2023-02-15T03:11:03;41.50;;;13.80;;
75768;SDS011;64379;48.888;8.330;2023-02-15T03:13:30;35.20;;;13.05;;
75768;SDS011;64379;48.888;8.330;2023-02-15T03:15:57;35.35;;;12.60;;
75768;SDS011;64379;48.888;8.330;2023-02-15T03:18:44;30.63;;;12.25;;
75768;SDS011;64379;48.888;8.330;2023-02-15T03:21:19;32.30;;;12.20;;
75768;SDS011;64379;48.888;8.330;2023-02-15T03:23:53;34.05;;;13.95;;
75768;SDS011;64379;48.888;8.330;2023-02-15T03:26:23;33.67;;;13.63;;
75768;SDS011;64379;48.888;8.330;2023-02-15T03:28:51;37.20;;;14.07;;
75768;SDS011;64379;48.888;8.330;2023-02-15T03:31:20;42.47;;;14.32;;
75768;SDS011;64379;48.888;8.330;2023-02-15T03:33:50;40.90;;;13.48;;
75768;SDS011;64379;48.888;8.330;2023-02-15T03:36:22;34.95;;;13.30;;
75768;SDS011;64379;48.888;8.330;2023-02-15T03:38:53;40.63;;;14.40;;
75768;SDS011;64379;48.888;8.330;2023-02-15T03:41:29;40.28;;;13.90;;
75768;SDS011;64379;48.888;8.330;2023-02-15T03:44:00;38.80;;;13.55;;
75768;SDS011;64379;48.888;8.330;2023-02-15T03:46:38;37.15;;;13.40;;
75768;SDS011;64379;48.888;8.330;2023-02-15T03:49:06;36.05;;;13.60;;
75768;SDS011;64379;48.888;8.330;2023-02-15T03:51:40;33.38;;;12.50;;
75768;SDS011;64379;48.888;8.330;2023-02-15T03:54:18;38.65;;;13.63;;
75768;SDS011;64379;48.888;8.330;2023-02-15T03:57:07;35.65;;;14.23;;
75768;SDS011;64379;48.888;8.330;2023-02-15T04:00:21;32.38;;;13.27;;
75768;SDS011;64379;48.888;8.330;2023-02-15T04:06:07;35.70;;;13.25;;
75768;SDS011;64379;48.888;8.330;2023-02-15T04:08:32;35.65;;;12.93;;
75768;SDS011;64379;48.888;8.330;2023-02-15T04:11:17;34.80;;;13.13;;
75768;SDS011;64379;48.888;8.330;2023-02-15T04:13:42;37.47;;;13.32;;
75768;SDS011;64379;48.888;8.330;2023-02-15T04:16:08;37.15;;;13.73;;
75768;SDS011;64379;48.888;8.330;2023-02-15T04:18:35;35.65;;;13.35;;
75768;SDS011;64379;48.888;8.330;2023-02-15T04:21:20;38.13;;;12.95;;
75768;SDS011;64379;48.888;8.330;2023-02-15T04:24:05;38.90;;;13.73;;
75768;SDS011;64379;48.888;8.330;2023-02-15T04:26:49;41.13;;;13.20;;
75768;SDS011;64379;48.888;8.330;2023-02-15T04:29:18;42.42;;;15.52;;
75768;SDS011;64379;48.888;8.330;2023-02-15T04:31:47;36.45;;;13.70;;
75768;SDS011;64379;48.888;8.330;2023-02-15T04:34:13;35.70;;;13.10;;
75768;SDS011;64379;48.888;8.330;2023-02-15T04:36:39;40.60;;;13.68;;
75768;SDS011;64379;48.888;8.330;2023-02-15T04:39:05;42.55;;;14.35;;
75768;SDS011;64379;48.888;8.330;2023-02-15T04:41:31;44.60;;;14.30;;
75768;SDS011;64379;48.888;8.330;2023-02-15T04:43:58;42.50;;;14.05;;
75768;SDS011;64379;48.888;8.330;2023-02-15T04:46:25;47.45;;;15.95;;
75768;SDS011;64379;48.888;8.330;2023-02-15T04:48:51;49.17;;;16.40;;
75768;SDS011;64379;48.888;8.330;2023-02-15T04:51:17;46.95;;;14.98;;
75768;SDS011;64379;48.888;8.330;2023-02-15T04:53:43;48.78;;;15.35;;
75768;SDS011;64379;48.888;8.330;2023-02-15T04:56:08;55.75;;;15.85;;
75768;SDS011;64379;48.888;8.330;2023-02-15T04:58:34;53.67;;;16.25;;
75768;SDS011;64379;48.888;8.330;2023-02-15T05:01:00;45.00;;;14.90;;
75768;SDS011;64379;48.888;8.330;2023-02-15T05:03:26;47.92;;;14.45;;
75768;SDS011;64379;48.888;8.330;2023-02-15T05:05:51;42.67;;;14.77;;
75768;SDS011;64379;48.888;8.330;2023-02-15T05:08:17;47.83;;;15.27;;
75768;SDS011;64379;48.888;8.330;2023-02-15T05:10:43;41.35;;;13.60;;
75768;SDS011;64379;48.888;8.330;2023-02-15T05:13:08;40.30;;;13.30;;
75768;SDS011;64379;48.888;8.330;2023-02-15T05:15:34;41.60;;;13.65;;
75768;SDS011;64379;48.888;8.330;2023-02-15T05:17:59;33.70;;;11.55;;
75768;SDS011;64379;48.888;8.330;2023-02-15T05:20:26;28.98;;;11.13;;
75768;SDS011;64379;48.888;8.330;2023-02-15T05:22:55;30.55;;;10.38;;
75768;SDS011;64379;48.888;8.330;2023-02-15T05:25:20;26.42;;;9.77;;
75768;SDS011;64379;48.888;8.330;2023-02-15T05:28:04;27.63;;;9.88;;
75768;SDS011;64379;48.888;8.330;2023-02-15T05:30:45;29.25;;;10.15;;
75768;SDS011;64379;48.888;8.330;2023-02-15T05:33:11;32.17;;;10.00;;
75768;SDS011;64379;48.888;8.330;2023-02-15T05:35:37;31.67;;;9.95;;
75768;SDS011;64379;48.888;8.330;2023-02-15T05:38:03;30.98;;;10.50;;
75768;SDS011;64379;48.888;8.330;2023-02-15T05:40:29;32.63;;;11.00;;
75768;SDS011;64379;48.888;8.330;2023-02-15T05:42:55;29.80;;;10.25;;
75768;SDS011;64379;48.888;8.330;2023-02-15T05:45:21;30.27;;;10.30;;
75768;SDS011;64379;48.888;8.330;2023-02-15T05:47:47;26.77;;;9.70;;
75768;SDS011;64379;48.888;8.330;2023-02-15T05:50:13;23.55;;;9.43;;
75768;SDS011;64379;48.888;8.330;2023-02-15T05:52:38;25.27;;;8.60;;
75768;SDS011;64379;48.888;8.330;2023-02-15T05:55:04;26.40;;;9.40;;
75768;SDS011;64379;48.888;8.330;2023-02-15T05:57:30;19.38;;;6.97;;
75768;SDS011;64379;48.888;8.330;2023-02-15T05:59:57;24.92;;;8.25;;
75768;SDS011;64379;48.888;8.330;2023-02-15T06:02:22;24.90;;;9.18;;
75768;SDS011;64379;48.888;8.330;2023-02-15T06:04:48;21.25;;;8.00;;
75768;SDS011;64379;48.888;8.330;2023-02-15T06:07:13;21.30;;;7.90;;
75768;SDS011;64379;48.888;8.330;2023-02-15T06:09:39;24.42;;;7.45;;
75768;SDS011;64379;48.888;8.330;2023-02-15T06:12:05;30.73;;;10.55;;
75768;SDS011;64379;48.888;8.330;2023-02-15T06:14:30;25.67;;;8.73;;
75768;SDS011;64379;48.888;8.330;2023-02-15T06:16:56;16.50;;;5.95;;
75768;SDS011;64379;48.888;8.330;2023-02-15T06:19:21;23.02;;;7.68;;
75768;SDS011;64379;48.888;8.330;2023-02-15T06:21:48;25.20;;;8.45;;
75768;SDS011;64379;48.888;8.330;2023-02-15T06:24:19;18.95;;;6.63;;
75768;SDS011;64379;48.888;8.330;2023-02-15T06:26:47;19.40;;;7.35;;
75768;SDS011;64379;48.888;8.330;2023-02-15T06:29:12;19.60;;;7.22;;
75768;SDS011;64379;48.888;8.330;2023-02-15T06:31:38;24.80;;;7.78;;
75768;SDS011;64379;48.888;8.330;2023-02-15T06:34:04;30.27;;;9.65;;
75768;SDS011;64379;48.888;8.330;2023-02-15T06:36:30;25.92;;;8.45;;
75768;SDS011;64379;48.888;8.330;2023-02-15T06:38:56;19.85;;;7.55;;
75768;SDS011;64379;48.888;8.330;2023-02-15T06:41:22;24.73;;;8.93;;
75768;SDS011;64379;48.888;8.330;2023-02-15T06:43:48;21.05;;;7.50;;
75768;SDS011;64379;48.888;8.330;2023-02-15T06:46:14;23.35;;;8.60;;
75768;SDS011;64379;48.888;8.330;2023-02-15T06:48:40;33.78;;;10.32;;
75768;SDS011;64379;48.888;8.330;2023-02-15T06:51:05;27.17;;;9.52;;
75768;SDS011;64379;48.888;8.330;2023-02-15T06:53:31;12.27;;;5.22;;
75768;SDS011;64379;48.888;8.330;2023-02-15T06:56:03;25.52;;;8.93;;
75768;SDS011;64379;48.888;8.330;2023-02-15T06:58:32;27.42;;;9.65;;
75768;SDS011;64379;48.888;8.330;2023-02-15T07:00:58;27.23;;;9.73;;
75768;SDS011;64379;48.888;8.330;2023-02-15T07:03:24;27.67;;;8.25;;
75768;SDS011;64379;48.888;8.330;2023-02-15T07:05:53;20.15;;;8.63;;
75768;SDS011;64379;48.888;8.330;2023-02-15T07:08:23;24.35;;;9.18;;
75768;SDS011;64379;48.888;8.330;2023-02-15T07:10:50;21.70;;;7.75;;
75768;SDS011;64379;48.888;8.330;2023-02-15T07:13:16;28.40;;;8.40;;
75768;SDS011;64379;48.888;8.330;2023-02-15T07:15:42;31.38;;;10.23;;
75768;SDS011;64379;48.888;8.330;2023-02-15T07:18:08;30.50;;;10.15;;
75768;SDS011;64379;48.888;8.330;2023-02-15T07:20:35;19.25;;;6.40;;
75768;SDS011;64379;48.888;8.330;2023-02-15T07:23:01;26.25;;;9.70;;
75768;SDS011;64379;48.888;8.330;2023-02-15T07:25:28;19.25;;;7.30;;
75768;SDS011;64379;48.888;8.330;2023-02-15T07:28:01;27.67;;;9.50;;
75768;SDS011;64379;48.888;8.330;2023-02-15T07:30:28;27.15;;;9.60;;
75768;SDS011;64379;48.888;8.330;2023-02-15T07:32:57;43.50;;;9.55;;
75768;SDS011;64379;48.888;8.330;2023-02-15T07:38:19;31.52;;;10.25;;
75768;SDS011;64379;48.888;8.330;2023-02-15T07:40:45;29.50;;;11.00;;
75768;SDS011;64379;48.888;8.330;2023-02-15T07:43:11;29.25;;;9.63;;
75768;SDS011;64379;48.888;8.330;2023-02-15T07:45:37;29.63;;;10.77;;
75768;SDS011;64379;48.888;8.330;2023-02-15T07:48:04;22.05;;;8.70;;
75768;SDS011;64379;48.888;8.330;2023-02-15T07:50:30;32.70;;;10.38;;
75768;SDS011;64379;48.888;8.330;2023-02-15T07:52:57;32.05;;;10.20;;
75768;SDS011;64379;48.888;8.330;2023-02-15T07:55:23;28.15;;;9.75;;
75768;SDS011;64379;48.888;8.330;2023-02-15T07:57:50;25.75;;;9.05;;
75768;SDS011;64379;48.888;8.330;2023-02-15T08:00:17;32.05;;;11.88;;
75768;SDS011;64379;48.888;8.330;2023-02-15T08:02:49;22.98;;;9.27;;
75768;SDS011;64379;48.888;8.330;2023-02-15T08:05:36;31.08;;;10.23;;
75768;SDS011;64379;48.888;8.330;2023-02-15T08:08:01;36.30;;;11.10;;
75768;SDS011;64379;48.888;8.330;2023-02-15T08:10:27;27.27;;;8.90;;
75768;SDS011;64379;48.888;8.330;2023-02-15T08:13:11;32.28;;;10.85;;
75768;SDS011;64379;48.888;8.330;2023-02-15T08:15:37;32.35;;;10.60;;
75768;SDS011;64379;48.888;8.330;2023-02-15T08:18:02;27.30;;;11.02;;
75768;SDS011;64379;48.888;8.330;2023-02-15T08:20:28;25.95;;;9.60;;
75768;SDS011;64379;48.888;8.330;2023-02-15T08:22:53;26.65;;;10.05;;
75768;SDS011;64379;48.888;8.330;2023-02-15T08:25:19;30.52;;;11.00;;
75768;SDS011;64379;48.888;8.330;2023-02-15T08:27:45;27.25;;;10.60;;
75768;SDS011;64379;48.888;8.330;2023-02-15T08:30:10;29.83;;;11.68;;
75768;SDS011;64379;48.888;8.330;2023-02-15T08:32:36;29.90;;;10.70;;
75768;SDS011;64379;48.888;8.330;2023-02-15T08:35:02;26.27;;;10.35;;
75768;SDS011;64379;48.888;8.330;2023-02-15T08:37:28;29.55;;;10.80;;
75768;SDS011;64379;48.888;8.330;2023-02-15T08:39:53;33.72;;;10.73;;
75768;SDS011;64379;48.888;8.330;2023-02-15T08:42:19;19.02;;;7.88;;
75768;SDS011;64379;48.888;8.330;2023-02-15T08:44:46;24.50;;;8.93;;
75768;SDS011;64379;48.888;8.330;2023-02-15T08:47:11;22.70;;;9.55;;
75768;SDS011;64379;48.888;8.330;2023-02-15T08:49:37;18.55;;;8.48;;
75768;SDS011;64379;48.888;8.330;2023-02-15T08:52:02;22.77;;;8.82;;
75768;SDS011;64379;48.888;8.330;2023-02-15T08:54:28;30.08;;;9.43;;
75768;SDS011;64379;48.888;8.330;2023-02-15T08:56:54;55.70;;;10.68;;
75768;SDS011;64379;48.888;8.330;2023-02-15T08:59:20;27.48;;;8.98;;
75768;SDS011;64379;48.888;8.330;2023-02-15T09:01:48;22.65;;;8.65;;
75768;SDS011;64379;48.888;8.330;2023-02-15T09:04:15;23.30;;;8.70;;
75768;SDS011;64379;48.888;8.330;2023-02-15T09:06:41;20.58;;;8.02;;
75768;SDS011;64379;48.888;8.330;2023-02-15T09:09:09;21.45;;;9.15;;
75768;SDS011;64379;48.888;8.330;2023-02-15T09:11:36;18.25;;;7.45;;
75768;SDS011;64379;48.888;8.330;2023-02-15T09:14:06;19.58;;;8.00;;
75768;SDS011;64379;48.888;8.330;2023-02-15T09:16:39;20.55;;;8.77;;
75768;SDS011;64379;48.888;8.330;2023-02-15T09:19:06;20.70;;;8.02;;
75768;SDS011;64379;48.888;8.330;2023-02-15T09:21:33;19.85;;;8.35;;
75768;SDS011;64379;48.888;8.330;2023-02-15T09:26:30;19.92;;;7.82;;
75768;SDS011;64379;48.888;8.330;2023-02-15T09:28:58;18.80;;;6.63;;
75768;SDS011;64379;48.888;8.330;2023-02-15T09:31:29;21.00;;;8.70;;
75768;SDS011;64379;48.888;8.330;2023-02-15T09:33:58;26.17;;;10.38;;
75768;SDS011;64379;48.888;8.330;2023-02-15T09:36:29;26.50;;;9.80;;
75768;SDS011;64379;48.888;8.330;2023-02-15T09:45:21;22.77;;;9.73;;
75768;SDS011;64379;48.888;8.330;2023-02-15T10:07:11;20.63;;;8.30;;
75768;SDS011;64379;48.888;8.330;2023-02-15T10:20:37;19.13;;;8.27;;
75768;SDS011;64379;48.888;8.330;2023-02-15T10:36:58;23.05;;;9.25;;
75768;SDS011;64379;48.888;8.330;2023-02-15T10:50:55;19.08;;;8.73;;
75768;SDS011;64379;48.888;8.330;2023-02-15T10:56:17;22.17;;;9.85;;
75768;SDS011;64379;48.888;8.330;2023-02-15T10:58:51;21.23;;;9.63;;
75768;SDS011;64379;48.888;8.330;2023-02-15T11:04:10;21.10;;;9.25;;
75768;SDS011;64379;48.888;8.330;2023-02-15T11:06:53;19.63;;;8.98;;
75768;SDS011;64379;48.888;8.330;2023-02-15T11:09:23;20.17;;;8.70;;
75768;SDS011;64379;48.888;8.330;2023-02-15T11:11:52;19.77;;;8.40;;
75768;SDS011;64379;48.888;8.330;2023-02-15T11:17:14;19.65;;;9.00;;
75768;SDS011;64379;48.888;8.330;2023-02-15T11:22:52;19.77;;;8.98;;
75768;SDS011;64379;48.888;8.330;2023-02-15T11:25:27;24.15;;;9.98;;
75768;SDS011;64379;48.888;8.330;2023-02-15T11:27:55;20.35;;;9.00;;
75768;SDS011;64379;48.888;8.330;2023-02-15T11:30:22;20.00;;;8.68;;
75768;SDS011;64379;48.888;8.330;2023-02-15T11:32:51;20.17;;;9.13;;
75768;SDS011;64379;48.888;8.330;2023-02-15T11:37:49;19.23;;;8.82;;
75768;SDS011;64379;48.888;8.330;2023-02-15T11:40:32;21.55;;;9.00;;
75768;SDS011;64379;48.888;8.330;2023-02-15T11:43:48;17.70;;;8.35;;
75768;SDS011;64379;48.888;8.330;2023-02-15T11:45:46;20.85;;;9.20;;
75768;SDS011;64379;48.888;8.330;2023-02-15T11:48:13;19.13;;;8.95;;
75768;SDS011;64379;48.888;8.330;2023-02-15T11:50:40;21.38;;;10.25;;
75768;SDS011;64379;48.888;8.330;2023-02-15T11:53:17;19.60;;;9.40;;
75768;SDS011;64379;48.888;8.330;2023-02-15T11:55:46;18.65;;;8.68;;
75768;SDS011;64379;48.888;8.330;2023-02-15T12:01:09;19.20;;;9.40;;
75768;SDS011;64379;48.888;8.330;2023-02-15T12:06:17;22.30;;;10.10;;
75768;SDS011;64379;48.888;8.330;2023-02-15T12:08:57;21.15;;;9.68;;
75768;SDS011;64379;48.888;8.330;2023-02-15T12:11:36;25.02;;;11.23;;
75768;SDS011;64379;48.888;8.330;2023-02-15T12:14:04;23.52;;;10.93;;
75768;SDS011;64379;48.888;8.330;2023-02-15T12:16:34;23.65;;;11.52;;
75768;SDS011;64379;48.888;8.330;2023-02-15T12:21:59;21.38;;;10.07;;
75768;SDS011;64379;48.888;8.330;2023-02-15T12:24:28;25.80;;;11.05;;
75768;SDS011;64379;48.888;8.330;2023-02-15T12:29:53;24.67;;;11.00;;
75768;SDS011;64379;48.888;8.330;2023-02-15T12:35:01;21.73;;;9.43;;
75768;SDS011;64379;48.888;8.330;2023-02-15T12:37:39;22.33;;;9.70;;
75768;SDS011;64379;48.888;8.330;2023-02-15T12:40:20;21.33;;;9.00;;
75768;SDS011;64379;48.888;8.330;2023-02-15T12:42:48;22.35;;;10.27;;
75768;SDS011;64379;48.888;8.330;2023-02-15T12:45:22;20.77;;;10.05;;
75768;SDS011;64379;48.888;8.330;2023-02-15T12:48:07;22.85;;;11.00;;
75768;SDS011;64379;48.888;8.330;2023-02-15T12:50:41;22.70;;;9.88;;
75768;SDS011;64379;48.888;8.330;2023-02-15T12:58:18;20.15;;;9.98;;
75768;SDS011;64379;48.888;8.330;2023-02-15T13:00:47;26.67;;;11.77;;
75768;SDS011;64379;48.888;8.330;2023-02-15T13:03:16;26.85;;;12.35;;
75768;SDS011;64379;48.888;8.330;2023-02-15T13:05:45;28.58;;;14.23;;
75768;SDS011;64379;48.888;8.330;2023-02-15T13:08:16;29.65;;;12.75;;
75768;SDS011;64379;48.888;8.330;2023-02-15T13:10:54;31.20;;;13.95;;
75768;SDS011;64379;48.888;8.330;2023-02-15T13:13:27;29.85;;;11.95;;
75768;SDS011;64379;48.888;8.330;2023-02-15T13:15:59;27.05;;;11.38;;
75768;SDS011;64379;48.888;8.330;2023-02-15T13:18:34;21.98;;;10.00;;
75768;SDS011;64379;48.888;8.330;2023-02-15T13:21:09;21.13;;;8.75;;
75768;SDS011;64379;48.888;8.330;2023-02-15T13:23:50;19.92;;;9.68;;
75768;SDS011;64379;48.888;8.330;2023-02-15T13:26:19;21.55;;;9.65;;
75768;SDS011;64379;48.888;8.330;2023-02-15T13:28:48;21.00;;;10.32;;
75768;SDS011;64379;48.888;8.330;2023-02-15T13:31:18;21.65;;;10.05;;
75768;SDS011;64379;48.888;8.330;2023-02-15T13:36:40;20.92;;;9.32;;
75768;SDS011;64379;48.888;8.330;2023-02-15T13:39:14;20.33;;;10.07;;
75768;SDS011;64379;48.888;8.330;2023-02-15T13:52:32;21.35;;;10.55;;
75768;SDS011;64379;48.888;8.330;2023-02-15T13:57:37;20.73;;;9.38;;
75768;SDS011;64379;48.888;8.330;2023-02-15T14:11:08;22.30;;;10.68;;
75768;SDS011;64379;48.888;8.330;2023-02-15T14:16:48;21.90;;;10.57;;
75768;SDS011;64379;48.888;8.330;2023-02-15T14:19:24;21.48;;;10.70;;
75768;SDS011;64379;48.888;8.330;2023-02-15T14:21:54;25.67;;;11.88;;
75768;SDS011;64379;48.888;8.330;2023-02-15T14:24:58;24.85;;;11.52;;
75768;SDS011;64379;48.888;8.330;2023-02-15T14:30:25;22.85;;;11.20;;
75768;SDS011;64379;48.888;8.330;2023-02-15T14:32:57;24.38;;;12.18;;
75768;SDS011;64379;48.888;8.330;2023-02-15T14:35:30;27.30;;;12.13;;
75768;SDS011;64379;48.888;8.330;2023-02-15T14:49:23;25.10;;;12.52;;
75768;SDS011;64379;48.888;8.330;2023-02-15T14:51:57;27.52;;;13.32;;
75768;SDS011;64379;48.888;8.330;2023-02-15T14:59:26;28.42;;;12.55;;
75768;SDS011;64379;48.888;8.330;2023-02-15T15:04:34;30.65;;;13.07;;
75768;SDS011;64379;48.888;8.330;2023-02-15T15:07:12;28.90;;;13.55;;
75768;SDS011;64379;48.888;8.330;2023-02-15T15:09:48;28.25;;;12.32;;
75768;SDS011;64379;48.888;8.330;2023-02-15T15:14:50;28.42;;;13.10;;
75768;SDS011;64379;48.888;8.330;2023-02-15T15:22:38;30.58;;;13.52;;
75768;SDS011;64379;48.888;8.330;2023-02-15T15:25:09;34.05;;;13.85;;
75768;SDS011;64379;48.888;8.330;2023-02-15T15:27:58;32.60;;;14.50;;
75768;SDS011;64379;48.888;8.330;2023-02-15T15:41:39;26.67;;;11.60;;
75768;SDS011;64379;48.888;8.330;2023-02-15T15:49:41;30.00;;;13.60;;
75768;SDS011;64379;48.888;8.330;2023-02-15T15:52:25;25.95;;;11.80;;
75768;SDS011;64379;48.888;8.330;2023-02-15T15:54:55;30.20;;;12.88;;
75768;SDS011;64379;48.888;8.330;2023-02-15T15:57:30;29.23;;;12.82;;
75768;SDS011;64379;48.888;8.330;2023-02-15T16:00:03;27.90;;;11.38;;
75768;SDS011;64379;48.888;8.330;2023-02-15T16:02:49;25.73;;;12.10;;
75768;SDS011;64379;48.888;8.330;2023-02-15T16:05:16;26.70;;;12.27;;
75768;SDS011;64379;48.888;8.330;2023-02-15T16:07:41;30.90;;;13.45;;
75768;SDS011;64379;48.888;8.330;2023-02-15T16:10:16;33.70;;;14.45;;
75768;SDS011;64379;48.888;8.330;2023-02-15T16:12:52;33.75;;;15.25;;
75768;SDS011;64379;48.888;8.330;2023-02-15T16:15:23;32.97;;;14.38;;
75768;SDS011;64379;48.888;8.330;2023-02-15T16:18:00;31.80;;;13.82;;
75768;SDS011;64379;48.888;8.330;2023-02-15T16:20:29;32.97;;;13.63;;
75768;SDS011;64379;48.888;8.330;2023-02-15T16:28:30;34.53;;;14.52;;
75768;SDS011;64379;48.888;8.330;2023-02-15T16:31:17;33.80;;;14.05;;
75768;SDS011;64379;48.888;8.330;2023-02-15T16:33:42;37.53;;;15.18;;
75768;SDS011;64379;48.888;8.330;2023-02-15T16:36:11;37.08;;;15.38;;
75768;SDS011;64379;48.888;8.330;2023-02-15T16:41:11;43.80;;;18.90;;
75768;SDS011;64379;48.888;8.330;2023-02-15T16:43:39;38.65;;;16.52;;
75768;SDS011;64379;48.888;8.330;2023-02-15T16:46:08;35.63;;;15.88;;
75768;SDS011;64379;48.888;8.330;2023-02-15T16:48:39;37.33;;;15.73;;
75768;SDS011;64379;48.888;8.330;2023-02-15T16:51:06;36.67;;;15.60;;
75768;SDS011;64379;48.888;8.330;2023-02-15T16:53:33;35.58;;;15.40;;
75768;SDS011;64379;48.888;8.330;2023-02-15T16:56:01;30.85;;;13.70;;
75768;SDS011;64379;48.888;8.330;2023-02-15T16:58:38;34.60;;;15.70;;
75768;SDS011;64379;48.888;8.330;2023-02-15T17:01:08;36.28;;;14.82;;
75768;SDS011;64379;48.888;8.330;2023-02-15T17:03:36;42.58;;;19.25;;
75768;SDS011;64379;48.888;8.330;2023-02-15T17:06:04;34.97;;;14.60;;
75768;SDS011;64379;48.888;8.330;2023-02-15T17:08:47;35.50;;;15.75;;
75768;SDS011;64379;48.888;8.330;2023-02-15T17:11:17;38.70;;;15.55;;
75768;SDS011;64379;48.888;8.330;2023-02-15T17:14:27;34.42;;;15.77;;
75768;SDS011;64379;48.888;8.330;2023-02-15T17:19:27;51.67;;;21.60;;
